createdAt,value
2022-11-08T00:01:48.620Z,0.80
2022-11-08T00:04:21.375Z,2.67
2022-11-08T00:07:08.970Z,0.67
2022-11-08T00:09:56.436Z,2.07
2022-11-08T00:12:44.061Z,0.77
2022-11-08T00:15:12.061Z,1.33
2022-11-08T00:17:42.064Z,1.53
2022-11-08T00:20:14.354Z,2.22
2022-11-08T00:22:42.213Z,1.77
2022-11-08T00:25:12.429Z,2.93
2022-11-08T00:27:42.269Z,1.85
2022-11-08T00:30:11.239Z,1.88
2022-11-08T00:32:39.028Z,2.87
2022-11-08T00:35:11.476Z,2.43
2022-11-08T00:37:40.623Z,0.90
2022-11-08T00:40:09.152Z,0.63
2022-11-08T00:42:41.114Z,1.53
2022-11-08T00:45:09.569Z,1.10
2022-11-08T00:47:37.370Z,0.80
2022-11-08T00:50:07.967Z,1.00
2022-11-08T00:52:35.750Z,0.77
2022-11-08T00:55:05.484Z,1.20
2022-11-08T00:57:54.039Z,0.35
2022-11-08T01:00:25.662Z,0.30
2022-11-08T01:03:11.355Z,1.17
2022-11-08T01:05:39.190Z,1.03
2022-11-08T01:08:09.526Z,2.57
2022-11-08T01:10:40.835Z,2.90
2022-11-08T01:13:08.721Z,1.97
2022-11-08T01:15:40.766Z,1.80
2022-11-08T01:18:12.504Z,1.87
2022-11-08T01:20:43.148Z,0.80
2022-11-08T01:23:11.838Z,0.60
2022-11-08T01:25:45.073Z,1.90
2022-11-08T01:28:15.580Z,0.93
2022-11-08T01:30:46.193Z,3.20
2022-11-08T01:33:16.844Z,2.35
2022-11-08T01:35:49.538Z,0.67
2022-11-08T01:38:19.923Z,2.70
2022-11-08T01:40:52.048Z,0.87
2022-11-08T01:43:40.573Z,1.80
2022-11-08T01:46:34.121Z,0.40
2022-11-08T01:49:42.439Z,0.77
2022-11-08T01:52:21.232Z,1.33
2022-11-08T01:54:58.708Z,0.93
2022-11-08T01:57:34.763Z,0.97
2022-11-08T02:00:09.445Z,0.77
2022-11-08T02:02:40.823Z,2.47
2022-11-08T02:05:26.599Z,0.90
2022-11-08T02:08:01.623Z,1.10
2022-11-08T02:10:36.887Z,0.97
2022-11-08T02:13:14.700Z,0.43
2022-11-08T02:15:45.365Z,3.13
2022-11-08T02:18:17.674Z,1.10
2022-11-08T02:20:54.979Z,2.00
2022-11-08T02:23:27.961Z,1.40
2022-11-08T02:25:59.003Z,0.70
2022-11-08T02:28:26.833Z,0.97
2022-11-08T02:30:54.828Z,1.87
2022-11-08T02:33:25.726Z,2.33
2022-11-08T02:35:57.722Z,1.70
2022-11-08T02:38:29.047Z,0.70
2022-11-08T02:41:00.055Z,1.73
2022-11-08T02:43:27.815Z,0.20
2022-11-08T02:45:57.490Z,0.53
2022-11-08T02:48:27.817Z,1.10
2022-11-08T02:50:55.626Z,2.15
2022-11-08T02:53:25.547Z,1.70
2022-11-08T02:55:55.490Z,0.55
2022-11-08T02:58:24.829Z,1.27
2022-11-08T03:00:54.646Z,0.83
2022-11-08T03:03:24.828Z,4.55
2022-11-08T03:05:52.571Z,0.40
2022-11-08T03:08:22.542Z,1.23
2022-11-08T03:10:52.479Z,1.38
2022-11-08T03:13:20.221Z,0.85
2022-11-08T03:15:51.435Z,1.30
2022-11-08T03:18:19.745Z,1.00
2022-11-08T03:20:47.774Z,1.60
2022-11-08T03:23:17.460Z,1.40
2022-11-08T03:25:47.496Z,0.60
2022-11-08T03:28:19.112Z,0.63
2022-11-08T03:30:55.866Z,0.87
2022-11-08T03:33:24.048Z,1.30
2022-11-08T03:35:54.251Z,0.63
2022-11-08T03:38:24.079Z,0.50
2022-11-08T03:40:51.845Z,1.77
2022-11-08T03:43:21.692Z,1.67
2022-11-08T03:45:51.377Z,0.82
2022-11-08T03:48:20.939Z,1.45
2022-11-08T03:50:53.695Z,1.58
2022-11-08T03:53:21.474Z,0.50
2022-11-08T03:55:49.259Z,2.03
2022-11-08T03:58:21.278Z,1.13
2022-11-08T04:00:49.276Z,2.73
2022-11-08T04:03:17.057Z,0.87
2022-11-08T04:05:48.125Z,0.67
2022-11-08T04:08:19.745Z,1.90
2022-11-08T04:10:51.958Z,0.73
2022-11-08T04:13:37.154Z,1.80
2022-11-08T04:16:13.939Z,0.40
2022-11-08T04:19:01.710Z,0.90
2022-11-08T04:21:35.036Z,3.63
2022-11-08T04:24:02.831Z,2.37
2022-11-08T04:26:30.595Z,3.07
2022-11-08T04:29:04.763Z,2.80
2022-11-08T04:31:32.599Z,2.03
2022-11-08T04:34:00.443Z,2.03
2022-11-08T04:36:33.754Z,2.40
2022-11-08T04:39:01.728Z,2.60
2022-11-08T04:41:29.777Z,1.43
2022-11-08T04:44:00.615Z,1.53
2022-11-08T04:46:30.780Z,0.80
2022-11-08T04:48:59.957Z,1.40
2022-11-08T04:51:31.754Z,2.10
2022-11-08T04:54:07.861Z,1.87
2022-11-08T04:56:35.937Z,1.73
2022-11-08T04:59:07.184Z,2.03
2022-11-08T05:01:41.612Z,3.10
2022-11-08T05:04:09.704Z,2.60
2022-11-08T05:06:37.648Z,3.67
2022-11-08T05:09:10.686Z,1.77
2022-11-08T05:11:38.455Z,3.17
2022-11-08T05:14:06.613Z,2.20
2022-11-08T05:16:38.783Z,5.60
2022-11-08T05:19:11.957Z,3.10
2022-11-08T05:22:02.309Z,1.50
2022-11-08T05:24:31.459Z,2.23
2022-11-08T05:27:01.375Z,1.87
2022-11-08T05:29:31.094Z,3.95
2022-11-08T05:31:58.901Z,4.32
2022-11-08T05:34:29.749Z,2.27
2022-11-08T05:36:59.803Z,3.13
2022-11-08T05:39:32.362Z,2.42
2022-11-08T05:42:00.401Z,6.87
2022-11-08T05:44:30.171Z,2.47
2022-11-08T05:47:00.167Z,2.45
2022-11-08T05:49:28.016Z,2.97
2022-11-08T05:51:57.699Z,4.43
2022-11-08T05:54:29.513Z,2.55
2022-11-08T05:56:58.620Z,2.90
2022-11-08T05:59:26.433Z,3.63
2022-11-08T06:01:58.522Z,2.50
2022-11-08T06:04:26.402Z,5.13
2022-11-08T06:06:54.184Z,5.03
2022-11-08T06:09:26.129Z,5.77
2022-11-08T06:11:53.922Z,2.97
2022-11-08T06:14:23.288Z,1.40
2022-11-08T06:16:55.002Z,2.30
2022-11-08T06:19:22.821Z,4.67
2022-11-08T06:21:50.631Z,4.40
2022-11-08T06:24:22.525Z,3.53
2022-11-08T06:26:50.323Z,4.07
2022-11-08T06:29:18.090Z,4.40
2022-11-08T06:31:49.277Z,6.10
2022-11-08T06:34:17.367Z,7.40
2022-11-08T06:36:45.199Z,3.87
2022-11-08T06:39:17.242Z,4.40
2022-11-08T06:41:45.248Z,4.00
2022-11-08T06:44:13.037Z,4.80
2022-11-08T06:46:44.916Z,3.87
2022-11-08T06:49:14.216Z,3.60
2022-11-08T06:51:42.055Z,8.97
2022-11-08T06:54:15.434Z,4.60
2022-11-08T06:56:47.704Z,3.67
2022-11-08T06:59:17.652Z,5.43
2022-11-08T07:01:46.036Z,5.38
2022-11-08T07:04:15.402Z,5.37
2022-11-08T07:06:43.313Z,5.07
2022-11-08T07:09:11.137Z,7.33
2022-11-08T07:11:41.165Z,4.97
2022-11-08T07:14:10.835Z,5.78
2022-11-08T07:16:38.774Z,5.78
2022-11-08T07:19:09.141Z,5.10
2022-11-08T07:21:40.176Z,7.55
2022-11-08T07:24:08.456Z,6.60
2022-11-08T07:26:38.398Z,7.13
2022-11-08T07:29:10.095Z,12.32
2022-11-08T07:31:43.487Z,8.33
2022-11-08T07:34:13.050Z,8.20
2022-11-08T07:36:42.212Z,5.47
2022-11-08T07:39:12.390Z,5.10
2022-11-08T07:41:40.248Z,4.95
2022-11-08T07:44:08.024Z,4.90
2022-11-08T07:46:38.183Z,4.57
2022-11-08T07:49:08.029Z,4.05
2022-11-08T07:51:35.824Z,3.75
2022-11-08T07:54:05.288Z,5.93
2022-11-08T07:56:33.199Z,4.50
2022-11-08T07:59:00.960Z,6.50
2022-11-08T08:01:30.974Z,4.33
2022-11-08T08:03:58.933Z,6.22
2022-11-08T08:06:26.806Z,5.43
2022-11-08T08:08:56.659Z,6.17
2022-11-08T08:11:33.319Z,6.22
2022-11-08T08:14:03.604Z,4.73
2022-11-08T08:16:33.371Z,4.45
2022-11-08T08:19:01.108Z,5.35
2022-11-08T08:21:31.047Z,5.23
2022-11-08T08:23:58.918Z,3.10
2022-11-08T08:26:28.544Z,4.43
2022-11-08T08:28:58.598Z,2.03
2022-11-08T08:31:28.206Z,4.45
2022-11-08T08:33:55.974Z,2.67
2022-11-08T08:36:23.855Z,2.37
2022-11-08T08:38:53.938Z,2.90
2022-11-08T08:41:21.771Z,3.45
2022-11-08T08:43:53.101Z,2.20
2022-11-08T08:46:22.818Z,1.80
2022-11-08T08:48:50.775Z,3.90
2022-11-08T08:51:20.945Z,4.83
2022-11-08T08:53:50.971Z,2.85
2022-11-08T08:56:18.788Z,2.97
2022-11-08T09:01:40.331Z,4.07
2022-11-08T09:04:08.363Z,4.03
2022-11-08T09:06:36.292Z,4.23
2022-11-08T09:09:04.296Z,3.37
2022-11-08T09:11:32.251Z,3.20
2022-11-08T09:14:01.418Z,5.20
2022-11-08T09:16:29.283Z,4.03
2022-11-08T09:18:57.268Z,4.43
2022-11-08T09:21:25.094Z,3.90
2022-11-08T09:23:53.077Z,4.50
2022-11-08T09:26:20.956Z,3.77
2022-11-08T09:28:48.768Z,3.43
2022-11-08T09:31:20.189Z,4.70
2022-11-08T09:33:51.535Z,3.50
2022-11-08T09:36:19.317Z,2.50
2022-11-08T09:38:47.339Z,4.97
2022-11-08T09:41:41.427Z,3.77
2022-11-08T09:44:24.160Z,5.67
2022-11-08T09:46:56.439Z,2.43
2022-11-08T09:49:36.815Z,6.10
2022-11-08T09:52:06.517Z,5.03
2022-11-08T09:54:40.500Z,4.85
2022-11-08T09:57:21.185Z,5.37
2022-11-08T09:59:55.710Z,4.10
2022-11-08T10:02:27.944Z,6.93
2022-11-08T10:04:59.591Z,3.80
2022-11-08T10:07:35.913Z,6.87
2022-11-08T10:10:32.798Z,5.27
2022-11-08T10:13:08.899Z,5.23
2022-11-08T10:15:45.391Z,5.07
2022-11-08T10:18:40.462Z,6.23
2022-11-08T10:21:21.825Z,8.67
2022-11-08T10:23:56.891Z,6.30
2022-11-08T10:26:31.902Z,7.90
2022-11-08T10:29:04.230Z,5.10
2022-11-08T10:31:36.933Z,8.00
2022-11-08T10:34:14.787Z,6.67
2022-11-08T10:36:44.741Z,8.60
2022-11-08T10:39:17.173Z,7.20
2022-11-08T10:41:50.773Z,8.83
2022-11-08T10:44:21.965Z,6.33
2022-11-08T10:46:53.943Z,5.97
2022-11-08T10:49:26.110Z,5.80
2022-11-08T10:51:57.506Z,6.90
2022-11-08T10:54:45.707Z,5.03
2022-11-08T10:57:16.518Z,5.47
2022-11-08T10:59:45.356Z,8.27
2022-11-08T11:02:25.686Z,5.67
2022-11-08T11:05:21.942Z,2.95
2022-11-08T11:08:02.386Z,3.77
2022-11-08T11:15:37.827Z,2.80
2022-11-08T11:18:06.919Z,2.27
2022-11-08T11:20:40.030Z,2.60
2022-11-08T11:23:12.286Z,4.30
2022-11-08T11:25:54.041Z,1.83
2022-11-08T11:28:21.896Z,1.37
2022-11-08T11:31:01.289Z,2.60
2022-11-08T11:33:31.047Z,2.20
2022-11-08T11:36:09.382Z,1.83
2022-11-08T11:38:48.039Z,1.67
2022-11-08T11:41:19.711Z,1.33
2022-11-08T11:43:57.251Z,1.73
2022-11-08T11:46:40.255Z,2.17
2022-11-08T11:49:14.985Z,2.07
2022-11-08T11:51:46.148Z,3.43
2022-11-08T11:54:17.130Z,1.60
2022-11-08T11:56:56.463Z,2.03
2022-11-08T11:59:43.062Z,1.13
2022-11-08T12:02:45.915Z,4.87
2022-11-08T12:05:33.386Z,1.53
2022-11-08T12:08:23.005Z,1.10
2022-11-08T12:11:01.485Z,1.00
2022-11-08T12:13:42.774Z,1.53
2022-11-08T12:16:18.385Z,3.20
2022-11-08T12:19:02.485Z,2.50
2022-11-08T12:21:39.075Z,2.03
2022-11-08T12:24:31.056Z,2.40
2022-11-08T12:27:04.861Z,1.00
2022-11-08T12:29:46.043Z,1.30
2022-11-08T12:32:28.575Z,3.23
2022-11-08T12:35:14.606Z,0.77
2022-11-08T12:37:53.735Z,2.67
2022-11-08T12:40:35.715Z,1.77
2022-11-08T12:43:23.027Z,11.40
2022-11-08T12:46:10.227Z,3.90
2022-11-08T12:48:57.339Z,2.47
2022-11-08T12:51:37.301Z,2.23
2022-11-08T12:54:26.388Z,2.20
2022-11-08T12:57:04.178Z,1.00
2022-11-08T12:59:38.194Z,3.13
2022-11-08T13:02:20.835Z,0.80
2022-11-08T13:04:57.474Z,1.30
2022-11-08T13:07:37.244Z,1.67
2022-11-08T13:10:13.036Z,1.10
2022-11-08T13:13:06.312Z,0.90
2022-11-08T13:15:34.290Z,0.80
2022-11-08T13:18:33.708Z,0.80
2022-11-08T13:21:01.860Z,1.00
2022-11-08T13:23:31.655Z,0.77
2022-11-08T13:26:22.358Z,1.77
2022-11-08T13:28:54.363Z,2.20
2022-11-08T13:31:34.721Z,1.37
2022-11-08T13:34:20.492Z,2.00
2022-11-08T13:37:00.212Z,2.10
2022-11-08T13:40:04.346Z,1.20
2022-11-08T13:42:41.021Z,0.90
2022-11-08T13:45:26.183Z,3.00
2022-11-08T13:48:00.360Z,1.00
2022-11-08T13:50:53.360Z,1.07
2022-11-08T13:53:56.621Z,1.23
2022-11-08T13:56:49.824Z,1.27
2022-11-08T13:59:59.928Z,0.70
2022-11-08T14:02:40.186Z,1.02
2022-11-08T14:05:28.011Z,1.20
2022-11-08T14:08:22.977Z,2.93
2022-11-08T14:11:32.271Z,1.10
2022-11-08T14:14:18.965Z,2.17
2022-11-08T14:17:00.417Z,1.27
2022-11-08T14:19:33.630Z,0.97
2022-11-08T14:22:02.971Z,1.10
2022-11-08T14:24:38.327Z,1.03
2022-11-08T14:27:08.515Z,1.20
2022-11-08T14:29:38.735Z,1.48
2022-11-08T14:32:08.893Z,1.25
2022-11-08T14:34:41.393Z,1.77
2022-11-08T14:37:18.316Z,3.07
2022-11-08T14:39:51.445Z,1.13
2022-11-08T14:42:23.476Z,2.00
2022-11-08T14:44:54.574Z,2.13
2022-11-08T14:47:25.183Z,3.87
2022-11-08T14:49:54.527Z,3.70
2022-11-08T14:52:27.492Z,2.43
2022-11-08T14:55:05.661Z,2.77
2022-11-08T14:57:38.354Z,2.47
2022-11-08T15:00:16.576Z,5.90
2022-11-08T15:02:48.418Z,3.37
2022-11-08T15:05:31.619Z,3.77
2022-11-08T15:08:00.381Z,4.00
2022-11-08T15:10:30.691Z,4.27
2022-11-08T15:12:58.724Z,4.05
2022-11-08T15:15:29.936Z,4.77
2022-11-08T15:18:13.469Z,7.90
2022-11-08T15:20:57.506Z,7.10
2022-11-08T15:23:42.340Z,6.77
2022-11-08T15:26:24.515Z,3.93
2022-11-08T15:29:00.554Z,3.70
2022-11-08T15:31:31.467Z,4.93
2022-11-08T15:33:59.890Z,5.50
2022-11-08T15:36:35.024Z,4.10
2022-11-08T15:39:04.053Z,4.27
2022-11-08T15:41:38.829Z,4.40
2022-11-08T15:44:20.817Z,4.53
2022-11-08T15:46:49.456Z,4.70
2022-11-08T15:49:22.733Z,4.30
2022-11-08T15:51:54.177Z,5.30
2022-11-08T15:54:25.321Z,3.87
2022-11-08T15:56:57.327Z,4.43
2022-11-08T15:59:30.797Z,4.17
2022-11-08T16:02:01.202Z,4.33
2022-11-08T16:06:58.916Z,8.50
2022-11-08T16:09:28.845Z,3.75
2022-11-08T16:11:58.826Z,4.65
2022-11-08T16:14:26.663Z,4.40
2022-11-08T16:16:56.532Z,5.43
2022-11-08T16:19:26.466Z,5.38
2022-11-08T16:21:54.303Z,4.20
2022-11-08T16:24:25.450Z,4.00
2022-11-08T16:26:53.394Z,4.00
2022-11-08T16:29:23.655Z,3.80
2022-11-08T16:31:54.471Z,4.30
2022-11-08T16:34:23.293Z,3.53
2022-11-08T16:36:52.017Z,5.60
2022-11-08T16:39:25.287Z,3.97
2022-11-08T16:41:56.540Z,3.60
2022-11-08T16:44:24.319Z,5.43
2022-11-08T16:46:56.026Z,4.57
2022-11-08T16:49:26.755Z,5.03
2022-11-08T16:51:54.521Z,5.47
2022-11-08T16:54:30.484Z,7.37
2022-11-08T16:57:28.621Z,5.70
2022-11-08T16:59:49.521Z,5.50
2022-11-08T17:02:25.958Z,5.60
2022-11-08T17:04:53.858Z,5.47
2022-11-08T17:07:21.972Z,4.23
2022-11-08T17:09:49.859Z,5.23
2022-11-08T17:12:19.709Z,5.10
2022-11-08T17:14:49.654Z,4.15
2022-11-08T17:17:17.430Z,4.57
2022-11-08T17:19:47.441Z,5.93
2022-11-08T17:22:15.367Z,17.45
2022-11-08T17:24:43.350Z,16.37
2022-11-08T17:27:13.091Z,19.37
2022-11-08T17:29:44.405Z,6.05
2022-11-08T17:32:12.169Z,4.37
2022-11-08T17:34:44.106Z,4.53
2022-11-08T17:37:11.948Z,5.43
2022-11-08T17:39:39.761Z,6.67
2022-11-08T17:42:07.909Z,4.40
2022-11-08T17:44:35.861Z,5.30
2022-11-08T17:47:05.105Z,7.10
2022-11-08T17:49:33.200Z,6.53
2022-11-08T17:52:00.970Z,9.70
2022-11-08T17:54:28.754Z,4.90
2022-11-08T17:57:00.706Z,3.33
2022-11-08T17:59:28.519Z,5.13
2022-11-08T18:01:57.127Z,3.37
2022-11-08T18:04:26.508Z,3.57
2022-11-08T18:06:54.379Z,4.57
2022-11-08T18:09:22.582Z,5.27
2022-11-08T18:11:52.573Z,5.23
2022-11-08T18:14:28.229Z,6.22
2022-11-08T18:17:01.597Z,6.37
2022-11-08T18:19:30.770Z,4.87
2022-11-08T18:22:00.288Z,4.63
2022-11-08T18:24:28.416Z,4.23
2022-11-08T18:26:56.296Z,4.83
2022-11-08T18:29:24.156Z,5.53
2022-11-08T18:31:52.232Z,4.03
2022-11-08T18:34:20.034Z,5.57
2022-11-08T18:36:49.254Z,6.27
2022-11-08T18:39:19.676Z,6.10
2022-11-08T18:41:47.960Z,6.57
2022-11-08T18:44:15.746Z,9.63
2022-11-08T18:46:45.820Z,6.97
2022-11-08T18:49:14.554Z,9.15
2022-11-08T18:51:42.650Z,9.47
2022-11-08T18:54:12.106Z,6.97
2022-11-08T18:56:40.136Z,8.33
2022-11-08T18:59:09.168Z,7.20
2022-11-08T19:01:37.462Z,8.17
2022-11-08T19:04:05.721Z,8.90
2022-11-08T19:06:35.854Z,9.03
2022-11-08T19:09:05.988Z,10.63
2022-11-08T19:11:36.525Z,8.88
2022-11-08T19:14:08.533Z,7.70
2022-11-08T19:16:36.663Z,9.93
2022-11-08T19:19:04.976Z,10.87
2022-11-08T19:21:37.536Z,12.13
2022-11-08T19:24:10.822Z,12.60
2022-11-08T19:26:44.041Z,12.77
2022-11-08T19:29:14.210Z,14.30
2022-11-08T19:31:47.450Z,9.82
2022-11-08T19:34:15.321Z,15.57
2022-11-08T19:36:44.324Z,12.93
2022-11-08T19:39:13.306Z,16.50
2022-11-08T19:41:42.928Z,9.83
2022-11-08T19:44:11.528Z,15.85
2022-11-08T19:46:43.916Z,27.57
2022-11-08T19:49:14.428Z,17.20
2022-11-08T19:54:17.845Z,17.52
2022-11-08T19:59:39.073Z,15.70
2022-11-08T20:02:07.596Z,18.70
2022-11-08T20:04:36.187Z,22.03
2022-11-08T20:07:08.656Z,19.73
2022-11-08T20:09:36.682Z,17.67
2022-11-08T20:12:07.088Z,22.33
2022-11-08T20:14:38.247Z,22.48
2022-11-08T20:17:06.671Z,27.30
2022-11-08T20:19:35.649Z,17.97
2022-11-08T20:22:06.047Z,19.20
2022-11-08T20:24:35.723Z,17.15
2022-11-08T20:27:05.382Z,16.52
2022-11-08T20:29:38.221Z,19.08
2022-11-08T20:32:10.253Z,21.60
2022-11-08T20:34:43.362Z,21.97
2022-11-08T20:37:14.551Z,17.73
2022-11-08T20:39:46.881Z,25.00
2022-11-08T20:42:18.492Z,22.37
2022-11-08T20:44:46.738Z,25.30
2022-11-08T20:47:16.961Z,23.10
2022-11-08T20:49:44.875Z,30.73
2022-11-08T20:52:16.984Z,30.20
2022-11-08T20:54:49.281Z,24.37
2022-11-08T20:57:18.590Z,20.53
2022-11-08T20:59:48.350Z,16.37
2022-11-08T21:02:20.495Z,18.73
2022-11-08T21:04:48.282Z,19.17
2022-11-08T21:10:40.083Z,29.40
2022-11-08T21:12:57.782Z,16.10
2022-11-08T21:15:30.149Z,21.83
2022-11-08T21:17:57.947Z,15.67
2022-11-08T21:20:26.870Z,20.17
2022-11-08T21:22:59.007Z,20.33
2022-11-08T21:25:28.993Z,24.93
2022-11-08T21:27:59.408Z,19.33
2022-11-08T21:32:55.459Z,17.90
2022-11-08T21:35:23.206Z,21.43
2022-11-08T21:37:51.025Z,18.77
2022-11-08T21:40:19.118Z,20.40
2022-11-08T21:42:48.926Z,16.00
2022-11-08T21:45:18.525Z,14.55
2022-11-08T21:47:50.317Z,21.03
2022-11-08T21:50:18.643Z,20.17
2022-11-08T21:52:48.449Z,19.77
2022-11-08T21:55:18.664Z,21.65
2022-11-08T21:57:46.563Z,20.30
2022-11-08T22:00:17.978Z,22.43
2022-11-08T22:02:48.974Z,20.50
2022-11-08T22:05:16.773Z,34.23
2022-11-08T22:07:46.472Z,20.67
2022-11-08T22:10:16.638Z,20.63
2022-11-08T22:12:44.586Z,18.45
2022-11-08T22:15:12.797Z,24.33
2022-11-08T22:18:00.915Z,20.33
2022-11-08T22:20:34.003Z,19.63
2022-11-08T22:23:07.803Z,23.53
2022-11-08T22:25:40.777Z,15.87
2022-11-08T22:28:08.720Z,18.47
2022-11-08T22:30:36.498Z,19.47
2022-11-08T22:33:06.360Z,17.53
2022-11-08T22:35:37.326Z,20.00
2022-11-08T22:38:05.070Z,24.70
2022-11-08T22:40:32.947Z,19.87
2022-11-08T22:43:02.925Z,27.10
2022-11-08T22:45:30.757Z,18.63
2022-11-08T22:48:00.346Z,21.03
2022-11-08T22:50:30.293Z,25.77
2022-11-08T22:52:59.477Z,24.25
2022-11-08T22:55:29.290Z,17.37
2022-11-08T22:57:59.350Z,19.80
2022-11-08T23:00:28.490Z,18.58
2022-11-08T23:02:58.296Z,22.70
2022-11-08T23:05:28.251Z,17.02
2022-11-08T23:07:56.213Z,24.70
2022-11-08T23:10:27.182Z,27.63
2022-11-08T23:13:14.800Z,23.87
2022-11-08T23:16:00.313Z,26.83
2022-11-08T23:18:28.526Z,20.97
2022-11-08T23:21:13.841Z,25.17
2022-11-08T23:23:57.650Z,19.93
2022-11-08T23:26:47.071Z,19.67
2022-11-08T23:29:45.925Z,23.80
2022-11-08T23:32:15.577Z,23.00
2022-11-08T23:34:45.820Z,23.25
2022-11-08T23:37:13.814Z,27.40
2022-11-08T23:39:57.349Z,18.63
2022-11-08T23:42:45.614Z,22.70
2022-11-08T23:45:18.016Z,23.27
2022-11-08T23:47:45.829Z,22.80
2022-11-08T23:50:14.076Z,25.70
2022-11-08T23:52:45.910Z,21.63
2022-11-08T23:55:13.823Z,26.03
2022-11-08T23:57:42.950Z,16.87
